METAR Data
IDs: Format: Raw Decoded Include TAF

Data at: 1654 UTC 19 Sep 2018

KOFK 191556Z AUTO 11013G18KT 10SM OVC018 23/19 A2988 RMK AO2 SLP108 T02280189
KOFK 191456Z AUTO 10011KT 10SM FEW010 OVC018 21/18 A2989 RMK AO2 SLP112 T02110183 55003
KOFK 191356Z AUTO 09009KT 10SM OVC018 20/18 A2989 RMK AO2 SLP112 T02000178
KOFK 191332Z AUTO 10009G18KT 9SM SCT010 BKN016 19/18 A2988 RMK AO2 T01940178
KOFK 191309Z AUTO 11010KT 8SM SCT005 OVC013 19/18 A2988 RMK AO2 T01940178
KOFK 191256Z AUTO 13010KT 6SM BR BKN005 OVC011 19/18 A2989 RMK AO2 SLP113 T01890178
KOFK 191249Z AUTO 11008KT 5SM BR OVC005 19/18 A2989 RMK AO2 T01890183
KOFK 191156Z AUTO 09010KT 7SM OVC004 18/18 A2990 RMK AO2 SLP116 70026 T01830178 10189 20178 53015
KOFK 191056Z AUTO 05008KT 5SM BR OVC003 19/18 A2989 RMK AO2 SLP113 T01890183
KOFK 190956Z AUTO 14005KT 5SM BR OVC003 19/18 A2985 RMK AO2 SLP098 T01890183
KOFK 190856Z AUTO 12008KT 8SM OVC004 18/18 A2985 RMK AO2 SLP099 T01830178 56016
KOFK 190812Z AUTO 11008KT 10SM BKN006 BKN095 18/17 A2986 RMK AO2 T01830172
KOFK 190756Z AUTO 11008KT 10SM FEW006 FEW080 BKN095 18/17 A2987 RMK AO2 SLP107 T01830172
KOFK 190656Z AUTO 10007KT 10SM FEW090 18/17 A2990 RMK AO2 SLP117 T01780172
KOFK 190556Z AUTO 09006KT 10SM CLR 18/17 A2992 RMK AO2 SLP123 T01780172 10217 20178 402500178 51003
KOFK 190456Z AUTO 09003KT 10SM CLR 18/17 A2991 RMK AO2 SLP120 T01780172
KOFK 190356Z AUTO 09003KT 10SM CLR 18/17 A2992 RMK AO2 SLP125 T01780172
KOFK 190256Z AUTO 10003KT 10SM FEW060 18/17 A2991 RMK AO2 SLP121 T01780172 51006
KOFK 190156Z AUTO 14003KT 10SM CLR 18/17 A2990 RMK AO2 SLP117 T01830172
KOFK 190056Z AUTO 12004KT 10SM CLR 19/18 A2990 RMK AO2 SLP116 T01940178
KOFK 182356Z AUTO 12006KT 10SM CLR 21/18 A2989 RMK AO2 SLP112 60001 T02110183 10233 20211 53007
KOFK 182256Z AUTO 13011KT 10SM SCT015 22/18 A2989 RMK AO2 SLP109 T02220178
KOFK 182238Z AUTO 10010KT 10SM BKN015 23/18 A2989 RMK AO2 T02280183
KOFK 182156Z AUTO 11014G20KT 10SM FEW015 23/18 A2987 RMK AO2 SLP102 T02280183
KOFK 182056Z AUTO 11011KT 10SM FEW017 22/18 A2987 RMK AO2 PK WND 15030/1959 SLP102 60001 T02220183 55021
KOFK 182028Z AUTO 05009G17KT 10SM CLR 22/18 A2990 RMK AO2 PK WND 15030/1959 LTG DSNT SE AND S T02170178
KOFK 181956Z AUTO 14021G28KT 10SM CLR 22/18 A2984 RMK AO2 PK WND 14028/1955 LTG DSNT S AND SW RAE22 PRESFR SLP092 P0000 T02170178
KOFK 181913Z AUTO 15016G21KT 10SM -RA FEW028 SCT090 SCT110 21/19 A2993 RMK AO2 LTG DSNT SE-SW P0000 T02110194
KOFK 181856Z AUTO 14011KT 6SM VCTS RA BR FEW030 BKN090 OVC110 21/19 A2992 RMK AO2 LTG DSNT S AND SW RAB39 SLP121 P0001 T02110189
KOFK 181756Z AUTO 12011KT 10SM CLR 21/19 A2993 RMK AO2 RAE02 SLP124 P0000 60025 T02110189 10217 20178 50007
KOFK 181730Z AUTO 10011G19KT 10SM FEW085 21/18 A2991 RMK AO2 LTG DSNT E AND SE RAE02 P0000 T02110183
KOFK 181715Z AUTO 11006KT 10SM VCTS BKN080 BKN100 21/19 A2996 RMK AO2 LTG DSNT E-S RAE02 P0000 T02110189
KOFK 181703Z AUTO 12010G18KT 10SM OVC080 21/18 A2996 RMK AO2 LTG DSNT NE-S RAE02 P0000 T02060183
KOFK 181656Z AUTO 11010G19KT 10SM VCTS -RA FEW027 BKN080 OVC110 20/18 A2997 RMK AO2 LTG DSNT NE-S TSE37 SLP136 P0025 T02000178
KOFK 181643Z AUTO 13009G17KT 9SM VCTS -RA FEW027 BKN080 OVC110 20/18 A2996 RMK AO2 LTG DSNT NE-S TSE37 P0025 T02000183
KOFK 181629Z AUTO 09010KT 3SM TSRA BR SCT047 BKN070 OVC090 20/18 A2994 RMK AO2 LTG DSNT NE-S P0024 T02000183
KOFK 181613Z AUTO 10006KT 1 3/4SM TSRA BR FEW036 BKN070 OVC095 20/18 A2996 RMK AO2 VIS 3/4V5 LTG DSNT ALQDS P0001 T02000183
KOFK 181556Z AUTO 12008G19KT 10SM -TSRA FEW040 BKN080 OVC100 20/18 A2993 RMK AO2 LTG DSNT NE AND SW AND W RAB10 TSE1458B49 SLP124 P0000 T02000183
KOFK 181553Z AUTO 09009G19KT 10SM -TSRA FEW040 BKN075 OVC090 20/18 A2991 RMK AO2 LTG DSNT NE AND SW AND W RAB10 TSE1458B49 PRESFR P0000
KOFK 181539Z AUTO 09009KT 10SM VCTS -RA SCT020 BKN049 OVC080 21/18 A2994 RMK AO2 LTG DSNT W-NE RAB10 TSE1458 P0000 T02060178
KOFK 181504Z AUTO 05005KT 10SM VCTS OVC019 19/18 A2994 RMK AO2 LTG DSNT W-N TSE1458 T01890178
KOFK 181456Z AUTO 04005KT 10SM TS OVC019 19/17 A2994 RMK AO2 LTG DSNT W-N TSB43 SLP129 T01890172 53010
KOFK 181449Z AUTO 04007KT 10SM TS OVC018 21/17 A2994 RMK AO2 LTG DSNT W AND NW TSB43 T02060172
KOFK 181434Z AUTO 09007KT 10SM VCTS OVC017 22/18 A2991 RMK AO2 LTG DSNT N AND W T02170178
KOFK 181356Z AUTO 05008KT 10SM OVC017 20/17 A2991 RMK AO2 SLP116 T02000167
KOFK 181309Z AUTO 03006KT 10SM SCT008 OVC016 19/17 A2992 RMK AO2 T01890167
KOFK 181256Z AUTO 02006KT 10SM BKN008 OVC016 18/17 A2992 RMK AO2 SLP122 T01780167
KOFK 181227Z AUTO 36010G16KT 10SM BKN008 BKN014 BKN080 18/17 A2993 RMK AO2 T01780167
KOFK 181210Z AUTO 34013G24KT 10SM FEW008 FEW023 BKN080 18/17 A2993 RMK AO2 PRESRR T01830172
KOFK 181156Z AUTO 33007KT 10SM FEW022 SCT075 21/20 A2991 RMK AO2 SLP114 T02110200 10250 20211 53012
KOFK 181056Z AUTO 20008KT 10SM CLR 23/21 A2989 RMK AO2 SLP103 T02330206
KOFK 180956Z AUTO 19009KT 10SM CLR 23/21 A2988 RMK AO2 SLP100 T02330206
KOFK 180856Z AUTO 19011KT 10SM CLR 24/21 A2988 RMK AO2 SLP099 T02390206 58005
KOFK 180756Z AUTO 18011KT 10SM CLR 24/21 A2988 RMK AO2 SLP100 T02390206
KOFK 180656Z AUTO 18012KT 10SM CLR 24/21 A2989 RMK AO2 SLP104 T02440206
KOFK 180556Z AUTO 18011KT 10SM CLR 25/21 A2989 RMK AO2 SLP104 T02500206 10311 20244 403500183 50002
KOFK 180456Z AUTO 18011KT 10SM CLR 26/20 A2990 RMK AO2 SLP107 T02610200